Time;durP1;ratioP1;P1;durP2;ratioP2;P2;SDS_P1;SDS_P2;PMS_P1;PMS_P2;Temp;Humidity;BMP_temperature;BMP_pressure;BME280_temperature;BME280_humidity;BME280_pressure;Samples;Min_cycle;Max_cycle;Signal;HPM_P1;HPM_P2
2021/08/29 00:01:07;;;;;;;11.30;5.70;;;;;;;;;;4984562;28;20120;-78
2021/08/29 00:03:32;;;;;;;10.32;5.93;;;;;;;;;;4986402;28;20030;-78
2021/08/29 00:05:57;;;;;;;9.38;5.63;;;;;;;;;;4986106;28;20543;-79
2021/08/29 00:08:23;;;;;;;10.75;5.13;;;;;;;;;;4981504;28;20037;-78
2021/08/29 00:10:48;;;;;;;14.93;5.53;;;;;;;;;;4998589;28;20034;-78
2021/08/29 00:13:14;;;;;;;11.20;5.40;;;;;;;;;;4987749;28;20030;-78
2021/08/29 00:15:39;;;;;;;11.63;5.90;;;;;;;;;;4979263;28;20122;-79
2021/08/29 00:18:05;;;;;;;10.20;5.72;;;;;;;;;;4968017;28;20614;-79
2021/08/29 00:20:30;;;;;;;12.27;5.57;;;;;;;;;;4983748;28;20084;-78
2021/08/29 00:22:56;;;;;;;10.98;5.95;;;;;;;;;;4985270;28;20038;-79
2021/08/29 00:25:22;;;;;;;9.35;5.57;;;;;;;;;;4985562;28;20113;-78
2021/08/29 00:27:47;;;;;;;10.45;5.88;;;;;;;;;;4985623;28;20033;-78
2021/08/29 00:30:13;;;;;;;12.35;5.25;;;;;;;;;;4984982;28;20545;-78
2021/08/29 00:32:40;;;;;;;10.27;5.10;;;;;;;;;;4971240;28;20030;-78
2021/08/29 00:35:06;;;;;;;15.00;5.85;;;;;;;;;;4980950;28;20061;-78
2021/08/29 00:37:31;;;;;;;11.25;6.07;;;;;;;;;;4984230;28;20046;-78
2021/08/29 00:39:56;;;;;;;18.75;6.57;;;;;;;;;;4998981;28;20034;-78
2021/08/29 00:42:23;;;;;;;17.50;5.53;;;;;;;;;;4982755;28;20042;-78
2021/08/29 00:44:48;;;;;;;14.65;5.85;;;;;;;;;;4993008;28;20044;-78
2021/08/29 00:47:13;;;;;;;11.02;5.75;;;;;;;;;;4957842;28;20030;-78
2021/08/29 00:49:40;;;;;;;12.40;6.40;;;;;;;;;;4986910;28;20034;-78
2021/08/29 00:52:07;;;;;;;12.43;6.25;;;;;;;;;;4970087;28;20046;-78
2021/08/29 00:54:33;;;;;;;14.98;6.25;;;;;;;;;;4983988;28;20113;-79
2021/08/29 00:57:00;;;;;;;13.18;6.90;;;;;;;;;;4983312;28;20121;-79
2021/08/29 00:59:30;;;;;;;13.98;6.35;;;;;;;;;;4997992;28;20050;-78
2021/08/29 01:02:00;;;;;;;15.40;7.03;;;;;;;;;;4985903;28;20032;-79
2021/08/29 01:04:38;;;;;;;18.50;7.82;;;;;;;;;;4981753;28;20018;-78
2021/08/29 01:07:15;;;;;;;14.35;7.93;;;;;;;;;;4983679;28;20020;-79
2021/08/29 01:09:43;;;;;;;14.35;7.25;;;;;;;;;;4987367;28;20234;-79
2021/08/29 01:12:10;;;;;;;13.77;7.13;;;;;;;;;;4985131;28;20101;-79
2021/08/29 01:14:36;;;;;;;14.30;7.03;;;;;;;;;;4983179;28;20036;-78
2021/08/29 01:17:04;;;;;;;14.18;6.93;;;;;;;;;;4978408;28;20483;-78
2021/08/29 01:19:54;;;;;;;15.52;7.13;;;;;;;;;;4982237;28;20034;-79
2021/08/29 01:22:20;;;;;;;12.52;6.75;;;;;;;;;;4963939;28;20525;-77
2021/08/29 01:24:48;;;;;;;13.57;7.18;;;;;;;;;;4984631;28;20034;-78
2021/08/29 01:27:25;;;;;;;13.73;6.80;;;;;;;;;;4978937;28;20038;-78
2021/08/29 01:29:51;;;;;;;12.48;7.13;;;;;;;;;;4983981;28;20058;-78
2021/08/29 01:32:19;;;;;;;13.63;6.63;;;;;;;;;;4983668;28;20434;-78
2021/08/29 01:34:47;;;;;;;11.23;6.15;;;;;;;;;;4985589;28;20022;-78
2021/08/29 01:37:14;;;;;;;14.00;6.32;;;;;;;;;;4985377;28;20415;-79
2021/08/29 01:39:40;;;;;;;15.10;6.20;;;;;;;;;;4984058;28;20058;-77
2021/08/29 01:42:06;;;;;;;12.85;6.97;;;;;;;;;;4981214;28;20491;-79
2021/08/29 01:44:32;;;;;;;12.93;6.15;;;;;;;;;;4968632;28;20049;-80
2021/08/29 01:46:58;;;;;;;12.57;6.07;;;;;;;;;;4986191;28;20026;-80
2021/08/29 01:49:25;;;;;;;10.95;5.65;;;;;;;;;;4985731;28;20042;-79
2021/08/29 01:51:50;;;;;;;13.82;6.63;;;;;;;;;;4984911;28;20042;-79
2021/08/29 01:54:16;;;;;;;12.43;5.88;;;;;;;;;;4983174;28;20380;-79
2021/08/29 01:57:03;;;;;;;11.70;5.65;;;;;;;;;;4981222;28;20113;-80
2021/08/29 01:59:30;;;;;;;11.55;6.20;;;;;;;;;;4987416;28;20189;-80
2021/08/29 02:01:56;;;;;;;11.13;5.70;;;;;;;;;;4988125;28;20030;-79
2021/08/29 02:04:24;;;;;;;16.75;5.93;;;;;;;;;;4990887;28;20561;-79
2021/08/29 02:07:02;;;;;;;12.88;5.50;;;;;;;;;;4987063;28;20022;-78
2021/08/29 02:09:30;;;;;;;11.93;6.13;;;;;;;;;;4991461;28;20037;-79
2021/08/29 02:11:56;;;;;;;13.25;6.00;;;;;;;;;;4996774;28;20044;-79
2021/08/29 02:14:26;;;;;;;11.52;5.68;;;;;;;;;;4994947;28;20058;-78
2021/08/29 02:16:54;;;;;;;10.38;5.40;;;;;;;;;;4988251;28;20038;-78
2021/08/29 02:19:25;;;;;;;12.48;5.40;;;;;;;;;;4987501;28;20117;-78
2021/08/29 02:21:51;;;;;;;16.92;6.10;;;;;;;;;;4982626;28;20038;-79
2021/08/29 02:24:19;;;;;;;11.15;5.60;;;;;;;;;;4969983;28;20030;-79
2021/08/29 02:26:45;;;;;;;9.32;4.97;;;;;;;;;;4988695;28;20684;-79
2021/08/29 02:29:10;;;;;;;10.82;5.43;;;;;;;;;;4966195;28;20042;-78
2021/08/29 02:31:37;;;;;;;15.52;5.93;;;;;;;;;;4988620;28;20030;-79
2021/08/29 02:34:03;;;;;;;11.05;5.75;;;;;;;;;;4990108;28;20041;-79
2021/08/29 02:36:29;;;;;;;10.02;5.72;;;;;;;;;;4987247;28;20046;-79
2021/08/29 02:38:55;;;;;;;10.38;5.57;;;;;;;;;;4970139;28;20053;-78
2021/08/29 02:41:23;;;;;;;11.80;6.15;;;;;;;;;;4987779;28;20025;-78
2021/08/29 02:43:49;;;;;;;16.38;6.70;;;;;;;;;;4987560;28;20137;-78
2021/08/29 02:46:15;;;;;;;13.07;5.80;;;;;;;;;;4984205;28;20022;-78
2021/08/29 02:48:44;;;;;;;14.13;5.47;;;;;;;;;;4971354;28;20726;-79
2021/08/29 02:51:14;;;;;;;13.10;6.03;;;;;;;;;;4989171;28;20207;-78
2021/08/29 02:53:43;;;;;;;10.70;6.15;;;;;;;;;;4986861;28;20034;-79
2021/08/29 02:56:09;;;;;;;12.45;5.28;;;;;;;;;;4984780;28;20027;-79
2021/08/29 02:58:36;;;;;;;12.40;6.22;;;;;;;;;;4980567;28;20046;-78
2021/08/29 03:01:02;;;;;;;9.45;5.63;;;;;;;;;;4983453;28;20022;-78
2021/08/29 03:03:28;;;;;;;11.55;5.32;;;;;;;;;;4988435;28;20027;-79
2021/08/29 03:05:54;;;;;;;12.23;6.18;;;;;;;;;;4987339;28;20045;-79
2021/08/29 03:08:20;;;;;;;14.85;6.30;;;;;;;;;;4984904;28;20034;-78
2021/08/29 03:10:45;;;;;;;13.27;5.80;;;;;;;;;;4988367;28;20113;-78
2021/08/29 03:13:14;;;;;;;15.27;6.55;;;;;;;;;;4987327;28;20522;-79
2021/08/29 03:15:39;;;;;;;19.65;6.20;;;;;;;;;;4986703;28;20030;-78
2021/08/29 03:18:05;;;;;;;12.23;6.25;;;;;;;;;;4986838;28;20057;-78
2021/08/29 03:20:30;;;;;;;11.77;5.80;;;;;;;;;;4970125;28;20470;-78
2021/08/29 03:22:56;;;;;;;12.25;5.80;;;;;;;;;;4984041;28;20034;-78
2021/08/29 03:25:22;;;;;;;14.23;5.72;;;;;;;;;;4986749;28;20030;-78
2021/08/29 03:27:48;;;;;;;10.50;5.88;;;;;;;;;;4986046;28;20559;-78
2021/08/29 03:30:14;;;;;;;15.35;5.43;;;;;;;;;;4989192;28;20533;-78
2021/08/29 03:32:40;;;;;;;10.98;5.40;;;;;;;;;;5003417;28;20050;-77
2021/08/29 03:35:07;;;;;;;10.20;5.53;;;;;;;;;;4986210;28;20049;-78
2021/08/29 03:37:33;;;;;;;9.68;5.68;;;;;;;;;;4998636;28;20034;-78
2021/08/29 03:40:01;;;;;;;12.63;5.20;;;;;;;;;;4983520;28;20031;-79
2021/08/29 03:42:30;;;;;;;10.05;5.53;;;;;;;;;;5004546;28;20607;-79
2021/08/29 03:44:56;;;;;;;11.30;5.28;;;;;;;;;;4985342;28;20084;-78
2021/08/29 03:47:22;;;;;;;11.10;5.57;;;;;;;;;;4982620;28;20042;-78
2021/08/29 03:49:48;;;;;;;9.50;5.07;;;;;;;;;;4982430;28;20038;-78
2021/08/29 03:52:17;;;;;;;9.07;4.85;;;;;;;;;;4986693;28;20038;-78
2021/08/29 03:54:44;;;;;;;13.02;5.53;;;;;;;;;;4986909;28;20041;-79
2021/08/29 03:57:11;;;;;;;9.57;5.15;;;;;;;;;;4985782;28;20446;-79
2021/08/29 03:59:36;;;;;;;10.63;5.40;;;;;;;;;;4985383;28;20597;-79
2021/08/29 04:02:03;;;;;;;10.05;5.05;;;;;;;;;;4949371;28;20035;-79
2021/08/29 04:04:29;;;;;;;9.55;4.88;;;;;;;;;;4985967;28;20038;-79
2021/08/29 04:06:55;;;;;;;8.93;4.75;;;;;;;;;;4987006;28;20034;-78
2021/08/29 04:09:22;;;;;;;10.85;5.03;;;;;;;;;;4986135;28;20628;-79
2021/08/29 04:11:49;;;;;;;10.52;5.00;;;;;;;;;;4985665;28;20057;-78
2021/08/29 04:14:15;;;;;;;9.88;4.88;;;;;;;;;;4982187;28;20402;-79
2021/08/29 04:16:41;;;;;;;10.40;5.22;;;;;;;;;;4969659;28;20022;-79
2021/08/29 04:19:07;;;;;;;8.55;4.68;;;;;;;;;;4985596;28;20622;-78
2021/08/29 04:21:33;;;;;;;8.85;4.75;;;;;;;;;;4986602;28;20104;-78
2021/08/29 04:23:59;;;;;;;13.98;5.00;;;;;;;;;;4981111;28;20045;-79
2021/08/29 04:26:25;;;;;;;12.50;5.85;;;;;;;;;;4983396;28;20031;-78
2021/08/29 04:28:51;;;;;;;10.45;5.10;;;;;;;;;;4985593;28;20034;-78
2021/08/29 04:31:37;;;;;;;8.43;5.00;;;;;;;;;;4981047;28;20034;-79
2021/08/29 04:34:08;;;;;;;10.45;5.20;;;;;;;;;;4981249;28;20042;-79
2021/08/29 04:36:36;;;;;;;9.30;5.53;;;;;;;;;;4982395;28;20046;-79
2021/08/29 04:39:05;;;;;;;9.65;4.55;;;;;;;;;;4978446;28;20274;-78
2021/08/29 04:41:30;;;;;;;10.77;5.53;;;;;;;;;;4985534;28;20026;-78
2021/08/29 04:43:56;;;;;;;14.68;6.22;;;;;;;;;;4981704;28;20033;-78
2021/08/29 04:46:21;;;;;;;11.38;6.22;;;;;;;;;;4980072;28;20478;-79
2021/08/29 04:48:47;;;;;;;13.43;6.35;;;;;;;;;;4986281;28;20065;-78
2021/08/29 04:51:12;;;;;;;12.90;6.05;;;;;;;;;;4969678;28;20049;-79
2021/08/29 04:53:38;;;;;;;15.27;5.78;;;;;;;;;;4986615;28;20117;-79
2021/08/29 04:56:04;;;;;;;10.68;6.20;;;;;;;;;;4985288;28;20034;-78
2021/08/29 04:58:29;;;;;;;10.32;6.05;;;;;;;;;;4973387;28;20045;-78
2021/08/29 05:00:54;;;;;;;12.73;6.25;;;;;;;;;;4991219;28;20034;-79
2021/08/29 05:03:20;;;;;;;13.82;6.63;;;;;;;;;;4990202;28;20027;-78
2021/08/29 05:05:45;;;;;;;15.85;6.72;;;;;;;;;;4950886;28;20197;-79
2021/08/29 05:08:11;;;;;;;17.15;7.45;;;;;;;;;;4987293;28;20034;-79
2021/08/29 05:10:36;;;;;;;13.23;6.40;;;;;;;;;;4966650;28;20038;-78
2021/08/29 05:13:02;;;;;;;11.27;6.78;;;;;;;;;;4967773;28;20041;-78
2021/08/29 05:15:28;;;;;;;18.65;7.07;;;;;;;;;;4983078;28;20027;-78
2021/08/29 05:17:53;;;;;;;14.60;7.10;;;;;;;;;;4969594;28;20037;-78
2021/08/29 05:20:19;;;;;;;23.50;7.53;;;;;;;;;;4975729;28;20046;-79
2021/08/29 05:22:44;;;;;;;16.40;7.20;;;;;;;;;;4987932;28;20096;-79
2021/08/29 05:25:10;;;;;;;11.18;5.60;;;;;;;;;;4986679;28;20045;-78
2021/08/29 05:27:35;;;;;;;11.68;5.90;;;;;;;;;;4981556;28;20391;-78
2021/08/29 05:30:01;;;;;;;10.98;6.07;;;;;;;;;;4982999;28;20062;-78
2021/08/29 05:32:27;;;;;;;16.15;6.75;;;;;;;;;;4982186;28;20553;-79
2021/08/29 05:34:52;;;;;;;14.07;6.85;;;;;;;;;;4989243;28;20023;-78
2021/08/29 05:37:18;;;;;;;14.60;6.65;;;;;;;;;;4990697;28;20554;-78
2021/08/29 05:39:44;;;;;;;13.35;6.22;;;;;;;;;;4989331;28;20062;-78
2021/08/29 05:42:10;;;;;;;14.20;5.95;;;;;;;;;;4991519;28;20730;-78
2021/08/29 05:44:35;;;;;;;16.25;7.03;;;;;;;;;;4989305;28;20026;-78
2021/08/29 05:47:01;;;;;;;22.88;8.15;;;;;;;;;;4985287;28;20233;-79
2021/08/29 05:49:26;;;;;;;26.02;9.05;;;;;;;;;;4990942;28;20040;-78
2021/08/29 05:51:52;;;;;;;21.52;8.50;;;;;;;;;;4987714;28;20031;-78
2021/08/29 05:54:17;;;;;;;32.25;11.25;;;;;;;;;;4988305;28;20125;-79
2021/08/29 05:56:43;;;;;;;36.67;12.27;;;;;;;;;;4997909;28;20023;-79
2021/08/29 05:59:09;;;;;;;35.10;10.30;;;;;;;;;;4986188;28;20482;-79
2021/08/29 06:01:34;;;;;;;24.63;9.93;;;;;;;;;;4954850;28;20038;-79
2021/08/29 06:04:00;;;;;;;36.38;13.02;;;;;;;;;;4986296;28;20104;-79
2021/08/29 06:06:25;;;;;;;32.30;11.45;;;;;;;;;;4979230;28;20034;-78
2021/08/29 06:08:51;;;;;;;36.63;12.65;;;;;;;;;;4966194;28;20081;-79
2021/08/29 06:11:16;;;;;;;37.70;12.75;;;;;;;;;;4982062;28;20066;-78
2021/08/29 06:13:42;;;;;;;36.22;12.90;;;;;;;;;;4987804;28;20034;-78
2021/08/29 06:16:07;;;;;;;30.30;11.13;;;;;;;;;;4988545;28;20050;-79
2021/08/29 06:18:33;;;;;;;35.75;12.30;;;;;;;;;;4989112;28;20534;-78
2021/08/29 06:20:58;;;;;;;39.08;13.68;;;;;;;;;;4990579;28;20065;-78
2021/08/29 06:23:24;;;;;;;38.10;13.95;;;;;;;;;;5011297;28;20042;-78
2021/08/29 06:25:49;;;;;;;38.63;13.55;;;;;;;;;;4991537;28;20521;-79
2021/08/29 06:28:15;;;;;;;37.67;13.13;;;;;;;;;;4985459;28;20045;-78
2021/08/29 06:30:40;;;;;;;45.00;14.65;;;;;;;;;;4986427;28;20568;-78
2021/08/29 06:33:05;;;;;;;40.95;13.18;;;;;;;;;;4987472;28;20109;-79
2021/08/29 06:35:31;;;;;;;42.17;13.93;;;;;;;;;;4986271;28;20105;-78
2021/08/29 06:37:57;;;;;;;45.08;13.90;;;;;;;;;;4988214;28;20475;-79
2021/08/29 06:40:22;;;;;;;41.53;14.23;;;;;;;;;;4981267;28;20065;-79
2021/08/29 06:42:47;;;;;;;42.30;13.40;;;;;;;;;;4985820;28;20109;-79
2021/08/29 06:45:13;;;;;;;42.85;13.63;;;;;;;;;;4997967;28;20074;-79
2021/08/29 06:47:39;;;;;;;43.80;14.02;;;;;;;;;;4988553;28;20038;-79
2021/08/29 06:50:05;;;;;;;54.95;15.35;;;;;;;;;;4982878;28;20054;-79
2021/08/29 06:52:31;;;;;;;48.97;14.85;;;;;;;;;;4987620;28;20018;-79
2021/08/29 06:54:57;;;;;;;44.22;14.60;;;;;;;;;;4988595;28;20030;-79
2021/08/29 06:57:25;;;;;;;54.67;14.82;;;;;;;;;;4981297;28;20030;-79
2021/08/29 06:59:52;;;;;;;46.83;13.55;;;;;;;;;;4983342;28;20049;-79
2021/08/29 07:02:18;;;;;;;40.88;13.18;;;;;;;;;;4987754;28;20026;-79
2021/08/29 07:04:43;;;;;;;49.17;14.10;;;;;;;;;;4987209;28;20034;-79
2021/08/29 07:07:09;;;;;;;42.83;12.82;;;;;;;;;;4984347;28;20026;-79
2021/08/29 07:09:38;;;;;;;35.25;12.57;;;;;;;;;;4987978;28;20023;-79
2021/08/29 07:12:05;;;;;;;34.47;11.40;;;;;;;;;;4987621;28;20216;-79
2021/08/29 07:14:30;;;;;;;35.58;12.38;;;;;;;;;;4985804;28;20030;-79
2021/08/29 07:16:56;;;;;;;32.45;12.25;;;;;;;;;;4984917;28;20110;-79
2021/08/29 07:19:21;;;;;;;37.45;11.68;;;;;;;;;;4979534;28;20038;-79
2021/08/29 07:21:46;;;;;;;32.03;11.82;;;;;;;;;;4954699;28;20122;-79
2021/08/29 07:24:12;;;;;;;28.40;10.63;;;;;;;;;;4987755;28;20598;-79
2021/08/29 07:26:37;;;;;;;31.25;11.10;;;;;;;;;;4987328;28;20710;-79
2021/08/29 07:29:03;;;;;;;24.52;10.65;;;;;;;;;;4985905;28;20040;-78
2021/08/29 07:31:28;;;;;;;26.27;10.38;;;;;;;;;;4987932;28;20042;-79
2021/08/29 07:33:55;;;;;;;23.52;10.23;;;;;;;;;;4982857;28;20116;-79
2021/08/29 07:36:21;;;;;;;33.80;9.75;;;;;;;;;;4986734;28;20047;-79
2021/08/29 07:38:46;;;;;;;25.83;10.77;;;;;;;;;;4986318;28;20027;-79
2021/08/29 07:41:12;;;;;;;21.42;10.15;;;;;;;;;;4987799;28;20517;-79
2021/08/29 07:43:37;;;;;;;20.55;9.95;;;;;;;;;;4986856;28;20568;-79
2021/08/29 07:46:03;;;;;;;23.25;9.80;;;;;;;;;;4988332;28;20047;-79
2021/08/29 07:48:28;;;;;;;23.98;9.13;;;;;;;;;;4971763;28;20027;-79
2021/08/29 07:50:53;;;;;;;22.83;8.55;;;;;;;;;;4987466;28;20202;-78
2021/08/29 07:53:19;;;;;;;15.38;8.35;;;;;;;;;;4982007;28;20454;-79
2021/08/29 07:55:45;;;;;;;19.05;10.07;;;;;;;;;;4987252;28;20076;-79
2021/08/29 07:58:10;;;;;;;17.52;8.40;;;;;;;;;;4981642;28;20035;-79
2021/08/29 08:00:36;;;;;;;17.67;8.40;;;;;;;;;;4968769;28;20038;-79
2021/08/29 08:03:01;;;;;;;21.48;9.45;;;;;;;;;;4985264;28;20030;-79
2021/08/29 08:05:27;;;;;;;21.58;10.60;;;;;;;;;;4985768;28;20638;-79
2021/08/29 08:07:52;;;;;;;24.92;9.85;;;;;;;;;;4985835;28;20038;-79
2021/08/29 08:10:21;;;;;;;22.08;9.15;;;;;;;;;;4987572;28;20072;-79
2021/08/29 08:12:46;;;;;;;23.90;10.55;;;;;;;;;;4970033;28;20026;-79
2021/08/29 08:15:11;;;;;;;28.13;11.57;;;;;;;;;;4985081;28;20092;-79
2021/08/29 08:17:37;;;;;;;25.63;11.07;;;;;;;;;;4985235;28;20079;-79
2021/08/29 08:20:03;;;;;;;23.55;10.98;;;;;;;;;;4998383;28;20045;-79
2021/08/29 08:22:28;;;;;;;29.33;11.23;;;;;;;;;;4986493;28;20029;-79
2021/08/29 08:24:54;;;;;;;29.65;11.63;;;;;;;;;;4967984;28;20515;-79
2021/08/29 08:27:19;;;;;;;26.73;12.00;;;;;;;;;;5003496;28;20030;-79
2021/08/29 08:29:45;;;;;;;35.38;13.80;;;;;;;;;;4985200;28;20022;-79
2021/08/29 08:32:10;;;;;;;37.50;13.88;;;;;;;;;;4981307;28;20142;-79
2021/08/29 08:34:36;;;;;;;38.63;13.77;;;;;;;;;;4982817;28;20117;-79
2021/08/29 08:37:01;;;;;;;38.20;14.35;;;;;;;;;;4969977;28;20080;-79
2021/08/29 08:39:27;;;;;;;41.03;15.10;;;;;;;;;;4985093;28;20049;-79
2021/08/29 08:41:52;;;;;;;45.25;16.35;;;;;;;;;;4984801;28;20129;-79
2021/08/29 08:44:18;;;;;;;45.72;16.30;;;;;;;;;;4976569;28;20045;-79
2021/08/29 08:46:45;;;;;;;52.20;18.55;;;;;;;;;;4982845;28;20034;-79
2021/08/29 08:49:11;;;;;;;40.42;15.90;;;;;;;;;;4983247;28;20038;-79
2021/08/29 08:51:38;;;;;;;46.75;17.13;;;;;;;;;;4981265;28;20701;-79
2021/08/29 08:54:07;;;;;;;49.35;17.33;;;;;;;;;;4983459;28;20038;-79
2021/08/29 08:56:34;;;;;;;48.35;16.48;;;;;;;;;;4983237;28;20034;-79
2021/08/29 08:59:00;;;;;;;52.97;16.73;;;;;;;;;;4984559;28;20044;-79
2021/08/29 09:01:26;;;;;;;46.53;19.15;;;;;;;;;;4986239;28;20546;-79
2021/08/29 09:03:52;;;;;;;54.97;18.00;;;;;;;;;;4969507;28;20034;-79
2021/08/29 09:06:18;;;;;;;52.30;18.58;;;;;;;;;;4984341;28;20122;-79
2021/08/29 09:08:44;;;;;;;50.75;17.88;;;;;;;;;;4981925;28;20105;-80
2021/08/29 09:11:09;;;;;;;55.75;19.02;;;;;;;;;;4987361;28;20045;-79
2021/08/29 09:13:47;;;;;;;48.17;17.40;;;;;;;;;;4988079;28;20562;-79
2021/08/29 09:16:15;;;;;;;42.00;17.08;;;;;;;;;;4987933;28;20022;-79
2021/08/29 09:18:55;;;;;;;46.03;16.45;;;;;;;;;;4982789;28;20069;-79
2021/08/29 09:21:23;;;;;;;46.10;16.23;;;;;;;;;;4986802;28;20084;-79
2021/08/29 09:23:49;;;;;;;39.80;16.42;;;;;;;;;;4988895;28;20200;-79
2021/08/29 09:26:17;;;;;;;37.03;15.48;;;;;;;;;;4986835;28;20033;-79
2021/08/29 09:28:44;;;;;;;41.20;14.88;;;;;;;;;;4987865;28;20049;-80
2021/08/29 09:31:10;;;;;;;46.60;15.25;;;;;;;;;;5003272;28;20034;-79
2021/08/29 09:33:35;;;;;;;49.13;15.45;;;;;;;;;;4989540;28;20077;-79
2021/08/29 09:36:01;;;;;;;37.67;14.10;;;;;;;;;;4990318;28;20081;-79
2021/08/29 09:38:36;;;;;;;33.47;12.85;;;;;;;;;;4989247;28;20037;-79
2021/08/29 09:41:02;;;;;;;25.13;10.27;;;;;;;;;;4989378;28;20036;-79
2021/08/29 09:43:36;;;;;;;22.27;9.35;;;;;;;;;;4987973;28;20026;-79
2021/08/29 09:46:08;;;;;;;21.05;9.10;;;;;;;;;;4989391;28;20022;-80
2021/08/29 09:48:33;;;;;;;22.08;8.70;;;;;;;;;;4985008;28;20038;-80
2021/08/29 09:50:59;;;;;;;17.35;8.98;;;;;;;;;;4985780;28;20101;-79
2021/08/29 09:53:25;;;;;;;14.93;8.07;;;;;;;;;;4988282;28;20034;-79
2021/08/29 09:55:51;;;;;;;15.60;8.10;;;;;;;;;;4972367;28;20040;-79
2021/08/29 09:58:32;;;;;;;13.77;7.05;;;;;;;;;;4972775;28;20034;-80
2021/08/29 10:01:11;;;;;;;13.77;6.95;;;;;;;;;;4988081;28;20022;-79
2021/08/29 10:03:39;;;;;;;13.57;6.78;;;;;;;;;;4987919;28;20038;-80
2021/08/29 10:06:24;;;;;;;12.18;6.25;;;;;;;;;;4988776;28;20041;-79
2021/08/29 10:08:54;;;;;;;13.05;6.03;;;;;;;;;;4987113;28;20106;-79
2021/08/29 10:11:22;;;;;;;11.00;6.25;;;;;;;;;;4987958;28;20376;-80
2021/08/29 10:13:48;;;;;;;10.63;4.90;;;;;;;;;;4989807;28;20083;-79
2021/08/29 10:16:15;;;;;;;12.55;5.68;;;;;;;;;;4987921;28;20037;-79
2021/08/29 10:18:45;;;;;;;13.32;5.15;;;;;;;;;;4987927;28;20048;-79
2021/08/29 10:21:13;;;;;;;8.75;4.75;;;;;;;;;;4988722;28;20507;-79
2021/08/29 10:23:41;;;;;;;6.97;4.70;;;;;;;;;;4987885;28;20104;-79
2021/08/29 10:26:09;;;;;;;8.80;4.03;;;;;;;;;;4989197;28;20533;-79
2021/08/29 10:28:42;;;;;;;8.38;4.45;;;;;;;;;;4986544;28;20035;-79
2021/08/29 10:31:12;;;;;;;11.07;4.70;;;;;;;;;;4987553;28;20850;-79
2021/08/29 10:33:39;;;;;;;8.43;4.30;;;;;;;;;;4981027;28;20096;-79
2021/08/29 10:36:07;;;;;;;8.52;3.95;;;;;;;;;;4988440;28;20104;-80
2021/08/29 10:38:34;;;;;;;7.80;3.95;;;;;;;;;;4987380;28;20046;-80
2021/08/29 10:41:00;;;;;;;9.05;4.35;;;;;;;;;;4988557;28;20062;-80
2021/08/29 10:43:28;;;;;;;9.93;4.18;;;;;;;;;;4990461;28;20041;-79
2021/08/29 10:45:54;;;;;;;7.60;3.97;;;;;;;;;;5001196;28;20049;-78
2021/08/29 10:48:21;;;;;;;7.30;4.20;;;;;;;;;;4982044;28;20038;-79
2021/08/29 10:50:48;;;;;;;9.40;4.00;;;;;;;;;;4984065;28;20042;-78
2021/08/29 10:53:34;;;;;;;9.30;4.13;;;;;;;;;;4986739;28;20423;-79
2021/08/29 10:56:15;;;;;;;6.05;3.90;;;;;;;;;;4986256;28;20092;-79
2021/08/29 10:58:48;;;;;;;10.48;4.50;;;;;;;;;;4985931;28;20065;-79
2021/08/29 11:01:39;;;;;;;6.90;4.18;;;;;;;;;;4986744;28;20022;-79
2021/08/29 11:04:26;;;;;;;8.65;4.30;;;;;;;;;;4986911;28;20026;-78
2021/08/29 11:06:54;;;;;;;10.57;4.25;;;;;;;;;;4982109;28;20080;-79
2021/08/29 11:09:34;;;;;;;10.77;4.25;;;;;;;;;;4979657;28;20030;-79
2021/08/29 11:12:27;;;;;;;8.63;4.05;;;;;;;;;;4979803;28;20038;-78
2021/08/29 11:14:55;;;;;;;8.82;3.97;;;;;;;;;;4987217;28;20038;-79
2021/08/29 11:17:38;;;;;;;8.75;4.20;;;;;;;;;;4980933;28;20669;-79
2021/08/29 11:20:04;;;;;;;5.38;3.58;;;;;;;;;;4978948;28;20086;-79
2021/08/29 11:22:54;;;;;;;6.63;4.13;;;;;;;;;;4987359;28;20036;-79
2021/08/29 11:25:24;;;;;;;8.15;4.03;;;;;;;;;;4979997;28;20047;-79
2021/08/29 11:28:01;;;;;;;7.82;4.10;;;;;;;;;;4983954;28;20080;-78
2021/08/29 11:30:36;;;;;;;7.75;4.00;;;;;;;;;;4980345;28;20026;-79
2021/08/29 11:33:04;;;;;;;8.38;3.92;;;;;;;;;;4977818;28;20048;-79
2021/08/29 11:35:35;;;;;;;8.80;3.97;;;;;;;;;;4987422;28;20534;-80
2021/08/29 11:38:20;;;;;;;12.57;3.65;;;;;;;;;;4984957;28;20550;-79
2021/08/29 11:40:59;;;;;;;7.60;4.70;;;;;;;;;;4984516;28;20453;-79
2021/08/29 11:43:27;;;;;;;11.52;3.80;;;;;;;;;;4987503;28;20022;-78
2021/08/29 11:46:02;;;;;;;9.52;4.40;;;;;;;;;;4987068;28;20031;-78
2021/08/29 11:48:30;;;;;;;8.98;3.88;;;;;;;;;;4983855;28;20112;-79
2021/08/29 11:50:56;;;;;;;11.60;4.43;;;;;;;;;;4987057;28;20475;-79
2021/08/29 11:53:22;;;;;;;13.32;4.20;;;;;;;;;;4984989;28;20042;-79
2021/08/29 11:55:54;;;;;;;7.40;4.18;;;;;;;;;;4970137;28;20112;-78
2021/08/29 11:58:20;;;;;;;10.73;4.63;;;;;;;;;;4986639;28;20041;-79
2021/08/29 12:00:48;;;;;;;9.23;5.78;;;;;;;;;;4985619;28;20034;-78
2021/08/29 12:03:14;;;;;;;7.13;3.90;;;;;;;;;;4984809;28;20618;-79
2021/08/29 12:06:28;;;;;;;9.55;4.45;;;;;;;;;;4955753;28;20137;-79
2021/08/29 12:09:18;;;;;;;8.00;3.80;;;;;;;;;;4979593;28;20042;-79
2021/08/29 12:11:43;;;;;;;8.30;3.90;;;;;;;;;;4999994;28;20041;-79
2021/08/29 12:14:22;;;;;;;7.80;3.78;;;;;;;;;;4985530;28;20034;-79
2021/08/29 12:16:59;;;;;;;9.65;3.75;;;;;;;;;;4987256;28;20081;-78
2021/08/29 12:19:31;;;;;;;11.68;4.43;;;;;;;;;;4981715;28;20101;-79
2021/08/29 12:21:58;;;;;;;10.65;4.60;;;;;;;;;;4986193;28;20036;-79
2021/08/29 12:24:32;;;;;;;6.68;3.53;;;;;;;;;;4980556;28;20042;-79
2021/08/29 12:27:06;;;;;;;4.95;3.22;;;;;;;;;;4987175;28;20034;-78
2021/08/29 12:29:45;;;;;;;6.05;3.72;;;;;;;;;;4984119;28;20022;-81
2021/08/29 12:32:14;;;;;;;7.13;3.80;;;;;;;;;;4981342;28;20111;-79
2021/08/29 12:34:40;;;;;;;7.50;3.20;;;;;;;;;;4982906;28;20121;-79
2021/08/29 12:37:11;;;;;;;5.85;3.47;;;;;;;;;;4985054;28;20129;-79
2021/08/29 12:39:37;;;;;;;9.35;3.40;;;;;;;;;;4987986;28;20021;-80
2021/08/29 12:42:17;;;;;;;6.70;3.83;;;;;;;;;;4985408;28;20042;-79
2021/08/29 12:44:42;;;;;;;12.65;3.92;;;;;;;;;;4981588;28;20117;-79
2021/08/29 12:47:09;;;;;;;8.02;3.50;;;;;;;;;;4983618;28;20122;-79
2021/08/29 12:49:34;;;;;;;6.60;3.50;;;;;;;;;;4982352;28;20495;-79
2021/08/29 12:52:01;;;;;;;7.70;3.15;;;;;;;;;;4965585;28;20129;-79
2021/08/29 12:54:27;;;;;;;6.50;3.55;;;;;;;;;;4982710;28;20026;-79
2021/08/29 12:56:53;;;;;;;12.65;4.15;;;;;;;;;;4986134;28;20026;-79
2021/08/29 12:59:28;;;;;;;7.63;4.13;;;;;;;;;;4981430;28;20031;-79
2021/08/29 13:01:55;;;;;;;10.95;3.78;;;;;;;;;;4976358;28;20114;-80
2021/08/29 13:04:28;;;;;;;7.03;3.90;;;;;;;;;;4983026;28;20113;-79
2021/08/29 13:07:20;;;;;;;8.30;3.88;;;;;;;;;;4984048;28;20112;-79
2021/08/29 13:09:47;;;;;;;8.45;4.28;;;;;;;;;;4980662;28;20042;-80
2021/08/29 13:12:30;;;;;;;8.80;4.28;;;;;;;;;;4985397;28;20062;-79
2021/08/29 13:14:59;;;;;;;7.00;4.13;;;;;;;;;;4985697;28;20821;-79
2021/08/29 13:17:26;;;;;;;8.43;3.90;;;;;;;;;;4985817;28;20030;-80
2021/08/29 13:20:07;;;;;;;8.15;4.15;;;;;;;;;;4985379;28;20027;-79
2021/08/29 13:22:38;;;;;;;8.07;4.45;;;;;;;;;;4983538;28;20085;-79
2021/08/29 13:25:19;;;;;;;8.52;4.88;;;;;;;;;;4983525;28;20030;-79
2021/08/29 13:27:46;;;;;;;9.65;4.20;;;;;;;;;;4980946;28;20101;-79
2021/08/29 13:30:12;;;;;;;8.05;3.65;;;;;;;;;;4979009;28;20088;-80
2021/08/29 13:32:40;;;;;;;7.72;4.00;;;;;;;;;;4986598;28;20507;-79
2021/08/29 13:35:13;;;;;;;8.60;4.20;;;;;;;;;;4987178;28;20029;-80
2021/08/29 13:37:51;;;;;;;6.63;3.75;;;;;;;;;;4986195;28;21214;-80
2021/08/29 13:40:19;;;;;;;6.28;4.38;;;;;;;;;;4983660;28;20033;-79
2021/08/29 13:42:53;;;;;;;5.85;3.60;;;;;;;;;;4982012;28;20065;-79
2021/08/29 13:45:25;;;;;;;8.32;3.50;;;;;;;;;;4980040;28;20569;-79
2021/08/29 13:47:51;;;;;;;7.70;3.80;;;;;;;;;;4982368;28;20038;-79
2021/08/29 13:50:17;;;;;;;10.68;3.47;;;;;;;;;;4984618;28;20498;-79
2021/08/29 13:52:42;;;;;;;7.90;3.60;;;;;;;;;;4966385;28;20069;-79
2021/08/29 13:55:14;;;;;;;6.07;3.67;;;;;;;;;;4970965;28;20154;-79
2021/08/29 13:57:40;;;;;;;;;;;;;;;;;;4974397;28;20035;-79
2021/08/29 14:00:06;;;;;;;5.80;3.55;;;;;;;;;;4990163;28;19971;-79
2021/08/29 14:02:32;;;;;;;5.25;3.47;;;;;;;;;;4989504;28;20053;-79
2021/08/29 14:04:57;;;;;;;5.38;3.33;;;;;;;;;;4988358;28;20035;-79
2021/08/29 14:07:25;;;;;;;6.93;3.08;;;;;;;;;;4984065;28;20030;-80
2021/08/29 14:09:50;;;;;;;4.43;2.80;;;;;;;;;;4988169;28;20475;-80
2021/08/29 14:12:16;;;;;;;4.50;3.08;;;;;;;;;;4985650;28;20027;-79
2021/08/29 14:14:41;;;;;;;6.53;3.28;;;;;;;;;;4972093;28;20117;-79
2021/08/29 14:17:07;;;;;;;10.73;2.92;;;;;;;;;;4987940;28;20459;-80
2021/08/29 14:19:32;;;;;;;6.68;2.72;;;;;;;;;;4983520;28;20022;-80
2021/08/29 14:21:58;;;;;;;4.28;2.53;;;;;;;;;;4987698;28;20046;-80
2021/08/29 14:24:23;;;;;;;5.10;2.63;;;;;;;;;;4984966;28;20049;-79
2021/08/29 14:26:49;;;;;;;4.75;2.67;;;;;;;;;;4987706;28;20569;-79
2021/08/29 14:29:14;;;;;;;4.18;2.28;;;;;;;;;;5000323;28;20062;-80
2021/08/29 14:31:39;;;;;;;4.78;2.60;;;;;;;;;;4969552;28;20034;-79
2021/08/29 14:34:05;;;;;;;4.43;2.65;;;;;;;;;;4951357;28;20524;-80
2021/08/29 14:36:30;;;;;;;5.55;2.70;;;;;;;;;;4985383;28;20042;-79